createdAt,value
2024-01-28T00:01:47.338Z,8.90
2024-01-28T00:04:14.250Z,6.38
2024-01-28T00:06:41.017Z,7.80
2024-01-28T00:09:07.672Z,7.63
2024-01-28T00:11:34.024Z,7.43
2024-01-28T00:14:00.672Z,6.78
2024-01-28T00:16:27.151Z,7.53
2024-01-28T00:18:53.516Z,6.00
2024-01-28T00:21:19.893Z,7.30
2024-01-28T00:23:46.287Z,6.57
2024-01-28T00:26:12.780Z,6.68
2024-01-28T00:28:39.057Z,6.57
2024-01-28T00:31:08.664Z,6.50
2024-01-28T00:33:35.448Z,6.57
2024-01-28T00:36:02.080Z,5.80
2024-01-28T00:38:28.689Z,7.50
2024-01-28T00:40:55.021Z,6.78
2024-01-28T00:43:22.379Z,7.68
2024-01-28T00:45:49.039Z,5.47
2024-01-28T00:48:16.611Z,6.18
2024-01-28T00:50:43.238Z,6.72
2024-01-28T00:53:09.820Z,6.38
2024-01-28T00:55:36.379Z,6.78
2024-01-28T00:58:02.993Z,5.60
2024-01-28T01:00:29.988Z,7.57
2024-01-28T01:02:56.346Z,5.53
2024-01-28T01:05:22.885Z,6.75
2024-01-28T01:07:49.324Z,6.63
2024-01-28T01:10:15.712Z,6.90
2024-01-28T01:12:42.473Z,6.47
2024-01-28T01:15:09.441Z,7.07
2024-01-28T01:17:35.750Z,6.18
2024-01-28T01:20:02.385Z,6.60
2024-01-28T01:22:28.755Z,7.72
2024-01-28T01:24:55.155Z,7.38
2024-01-28T01:27:21.832Z,8.45
2024-01-28T01:29:48.433Z,7.80
2024-01-28T01:32:14.778Z,7.55
2024-01-28T01:34:41.399Z,7.15
2024-01-28T01:37:07.753Z,7.10
2024-01-28T01:39:34.341Z,8.32
2024-01-28T01:42:00.949Z,6.93
2024-01-28T01:44:27.778Z,7.25
2024-01-28T01:46:54.578Z,8.63
2024-01-28T01:49:21.073Z,6.72
2024-01-28T01:51:47.749Z,7.03
2024-01-28T01:54:14.382Z,6.90
2024-01-28T01:56:40.768Z,6.18
2024-01-28T01:59:07.289Z,6.18
2024-01-28T02:01:36.008Z,7.20
2024-01-28T02:04:02.859Z,5.80
2024-01-28T02:06:29.700Z,7.45
2024-01-28T02:08:56.491Z,5.63
2024-01-28T02:11:23.564Z,6.45
2024-01-28T02:13:50.393Z,6.97
2024-01-28T02:16:17.023Z,6.45
2024-01-28T02:18:43.771Z,6.82
2024-01-28T02:21:10.268Z,7.78
2024-01-28T02:23:36.593Z,8.35
2024-01-28T02:26:02.904Z,6.90
2024-01-28T02:28:29.402Z,7.20
2024-01-28T02:30:56.182Z,6.53
2024-01-28T02:33:22.679Z,7.57
2024-01-28T02:35:49.346Z,6.28
2024-01-28T02:38:15.681Z,6.88
2024-01-28T02:40:42.274Z,6.32
2024-01-28T02:43:09.131Z,5.78
2024-01-28T02:45:35.492Z,6.72
2024-01-28T02:48:01.885Z,6.32
2024-01-28T02:50:28.262Z,7.30
2024-01-28T02:52:54.855Z,6.78
2024-01-28T02:55:21.247Z,6.22
2024-01-28T02:57:47.893Z,6.80
2024-01-28T03:00:15.035Z,7.68
2024-01-28T03:02:41.629Z,6.63
2024-01-28T03:05:10.022Z,6.82
2024-01-28T03:07:36.604Z,7.32
2024-01-28T03:10:03.346Z,7.25
2024-01-28T03:12:29.701Z,6.88
2024-01-28T03:14:56.320Z,6.75
2024-01-28T03:17:22.659Z,7.53
2024-01-28T03:19:49.092Z,6.57
2024-01-28T03:22:15.450Z,7.43
2024-01-28T03:24:41.916Z,7.85
2024-01-28T03:27:08.325Z,6.90
2024-01-28T03:29:34.628Z,7.65
2024-01-28T03:32:01.231Z,7.97
2024-01-28T03:34:27.645Z,6.97
2024-01-28T03:36:54.275Z,6.57
2024-01-28T03:39:20.945Z,6.75
2024-01-28T03:41:47.536Z,6.85
2024-01-28T03:44:14.100Z,6.68
2024-01-28T03:46:40.666Z,6.22
2024-01-28T03:49:07.436Z,5.93
2024-01-28T03:51:34.376Z,6.88
2024-01-28T03:54:00.794Z,6.90
2024-01-28T03:56:27.113Z,6.40
2024-01-28T03:58:53.661Z,6.30
2024-01-28T04:01:30.108Z,7.50
2024-01-28T04:03:56.717Z,7.55
2024-01-28T04:06:24.249Z,6.60
2024-01-28T04:08:51.186Z,5.85
2024-01-28T04:11:17.508Z,6.13
2024-01-28T04:13:44.652Z,7.63
2024-01-28T04:16:11.213Z,6.18
2024-01-28T04:18:37.943Z,6.95
2024-01-28T04:21:05.207Z,7.15
2024-01-28T04:23:31.518Z,7.32
2024-01-28T04:25:57.827Z,7.05
2024-01-28T04:28:24.148Z,7.18
2024-01-28T04:30:50.480Z,6.07
2024-01-28T04:33:17.186Z,6.32
2024-01-28T04:35:43.766Z,7.13
2024-01-28T04:38:10.312Z,6.18
2024-01-28T04:40:36.866Z,7.72
2024-01-28T04:43:03.460Z,5.95
2024-01-28T04:45:30.108Z,6.70
2024-01-28T04:47:56.569Z,6.97
2024-01-28T04:50:22.928Z,6.25
2024-01-28T04:52:49.316Z,6.00
2024-01-28T04:55:15.638Z,6.63
2024-01-28T04:57:42.211Z,8.23
2024-01-28T05:00:08.964Z,8.35
2024-01-28T05:02:35.523Z,7.72
2024-01-28T05:05:02.369Z,7.43
2024-01-28T05:07:28.792Z,7.15
2024-01-28T05:09:55.346Z,7.78
2024-01-28T05:12:23.305Z,6.82
2024-01-28T05:14:49.858Z,8.48
2024-01-28T05:17:16.142Z,7.30
2024-01-28T05:19:42.970Z,7.85
2024-01-28T05:22:09.625Z,7.22
2024-01-28T05:24:36.572Z,8.10
2024-01-28T05:27:03.189Z,6.63
2024-01-28T05:29:29.870Z,7.15
2024-01-28T05:31:56.212Z,7.22
2024-01-28T05:34:22.562Z,7.63
2024-01-28T05:36:49.921Z,9.35
2024-01-28T05:39:17.083Z,8.90
2024-01-28T05:41:44.071Z,9.02
2024-01-28T05:44:10.972Z,8.48
2024-01-28T05:46:37.792Z,8.85
2024-01-28T05:49:04.166Z,8.50
2024-01-28T05:51:30.902Z,8.38
2024-01-28T05:53:57.364Z,8.57
2024-01-28T05:56:23.893Z,7.75
2024-01-28T05:58:50.229Z,7.10
2024-01-28T06:01:18.927Z,7.82
2024-01-28T06:03:45.638Z,7.35
2024-01-28T06:06:12.038Z,7.32
2024-01-28T06:08:38.416Z,6.57
2024-01-28T06:11:05.041Z,7.63
2024-01-28T06:13:31.641Z,6.28
2024-01-28T06:15:58.274Z,6.53
2024-01-28T06:18:24.693Z,6.80
2024-01-28T06:20:51.286Z,10.68
2024-01-28T06:23:17.853Z,11.10
2024-01-28T06:25:44.348Z,10.73
2024-01-28T06:28:10.932Z,8.98
2024-01-28T06:30:37.481Z,7.97
2024-01-28T06:33:04.262Z,8.55
2024-01-28T06:35:31.022Z,7.22
2024-01-28T06:37:57.868Z,8.35
2024-01-28T06:40:24.212Z,8.23
2024-01-28T06:42:50.509Z,9.43
2024-01-28T06:45:17.173Z,9.38
2024-01-28T06:47:43.510Z,10.05
2024-01-28T06:50:10.344Z,9.02
2024-01-28T06:52:36.736Z,8.75
2024-01-28T06:55:03.501Z,8.55
2024-01-28T06:57:29.839Z,8.27
2024-01-28T06:59:56.412Z,8.60
2024-01-28T07:02:22.711Z,7.38
2024-01-28T07:04:49.335Z,8.30
2024-01-28T07:07:15.824Z,7.13
2024-01-28T07:09:42.438Z,8.88
2024-01-28T07:12:09.136Z,7.57
2024-01-28T07:14:35.859Z,7.50
2024-01-28T07:17:02.437Z,8.82
2024-01-28T07:19:29.068Z,7.63
2024-01-28T07:21:55.645Z,9.40
2024-01-28T07:24:22.031Z,8.30
2024-01-28T07:26:48.554Z,8.68
2024-01-28T07:29:14.945Z,8.48
2024-01-28T07:31:41.528Z,8.10
2024-01-28T07:34:08.098Z,7.68
2024-01-28T07:36:38.486Z,7.68
2024-01-28T07:39:05.412Z,7.07
2024-01-28T07:41:31.691Z,7.75
2024-01-28T07:43:58.260Z,8.00
2024-01-28T07:46:24.536Z,7.65
2024-01-28T07:48:51.513Z,8.13
2024-01-28T07:51:17.934Z,7.40
2024-01-28T07:53:47.480Z,9.02
2024-01-28T07:56:14.421Z,8.32
2024-01-28T07:58:41.032Z,9.05
2024-01-28T08:01:07.740Z,5.95
2024-01-28T08:03:34.438Z,6.45
2024-01-28T08:06:00.869Z,7.32
2024-01-28T08:08:27.242Z,6.07
2024-01-28T08:10:53.885Z,7.15
2024-01-28T08:13:20.430Z,6.95
2024-01-28T08:15:47.142Z,7.38
2024-01-28T08:18:13.670Z,7.57
2024-01-28T08:20:40.326Z,7.57
2024-01-28T08:23:06.646Z,6.95
2024-01-28T08:25:33.287Z,9.77
2024-01-28T08:27:59.888Z,11.85
2024-01-28T08:30:26.386Z,14.43
2024-01-28T08:32:52.757Z,14.70
2024-01-28T08:35:19.205Z,13.45
2024-01-28T08:37:45.503Z,12.85
2024-01-28T08:40:12.104Z,11.85
2024-01-28T08:42:38.427Z,12.77
2024-01-28T08:45:05.333Z,12.98
2024-01-28T08:47:32.776Z,14.20
2024-01-28T08:49:59.863Z,11.35
2024-01-28T08:52:26.392Z,10.45
2024-01-28T08:54:53.037Z,11.93
2024-01-28T08:57:19.618Z,8.13
2024-01-28T08:59:45.958Z,8.60
2024-01-28T09:02:13.030Z,7.20
2024-01-28T09:04:39.666Z,7.47
2024-01-28T09:07:06.441Z,8.40
2024-01-28T09:09:33.046Z,8.15
2024-01-28T09:11:59.727Z,7.35
2024-01-28T09:14:26.151Z,7.80
2024-01-28T09:16:52.476Z,12.00
2024-01-28T09:19:18.977Z,6.40
2024-01-28T09:21:45.729Z,6.10
2024-01-28T09:24:14.007Z,6.80
2024-01-28T09:26:40.309Z,7.10
2024-01-28T09:29:06.629Z,8.15
2024-01-28T09:31:33.394Z,6.40
2024-01-28T09:33:59.939Z,7.75
2024-01-28T09:36:26.602Z,6.65
2024-01-28T09:38:52.932Z,7.63
2024-01-28T09:41:32.287Z,6.07
2024-01-28T09:43:58.588Z,8.43
2024-01-28T09:46:25.392Z,6.13
2024-01-28T09:48:52.121Z,7.72
2024-01-28T09:51:22.066Z,8.30
2024-01-28T09:53:53.594Z,7.35
2024-01-28T09:56:19.952Z,6.43
2024-01-28T09:58:46.291Z,8.00
2024-01-28T10:01:12.849Z,7.30
2024-01-28T10:03:39.600Z,7.65
2024-01-28T10:06:06.094Z,7.78
2024-01-28T10:08:32.907Z,7.80
2024-01-28T10:11:01.303Z,7.75
2024-01-28T10:13:28.260Z,7.80
2024-01-28T10:15:58.226Z,7.70
2024-01-28T10:18:25.981Z,9.27
2024-01-28T10:20:52.614Z,7.22
2024-01-28T10:23:19.231Z,8.40
2024-01-28T10:25:45.956Z,7.43
2024-01-28T10:28:12.262Z,8.55
2024-01-28T10:30:38.624Z,8.00
2024-01-28T10:33:05.691Z,7.05
2024-01-28T10:35:32.062Z,6.35
2024-01-28T10:37:59.356Z,7.18
2024-01-28T10:40:31.265Z,7.10
2024-01-28T10:42:59.701Z,7.78
2024-01-28T10:45:27.428Z,6.50
2024-01-28T10:47:57.557Z,7.45
2024-01-28T10:50:26.384Z,7.22
2024-01-28T10:52:52.828Z,7.10
2024-01-28T10:55:19.711Z,6.97
2024-01-28T10:57:46.475Z,6.80
2024-01-28T11:00:13.342Z,7.70
2024-01-28T11:02:40.374Z,7.10
2024-01-28T11:05:07.504Z,8.15
2024-01-28T11:07:33.868Z,8.10
2024-01-28T11:10:00.216Z,7.93
2024-01-28T11:12:28.349Z,6.68
2024-01-28T11:14:58.169Z,6.47
2024-01-28T11:17:34.521Z,6.57
2024-01-28T11:20:11.388Z,7.90
2024-01-28T11:22:56.904Z,7.63
2024-01-28T11:25:24.515Z,7.55
2024-01-28T11:27:51.937Z,6.60
2024-01-28T11:30:22.452Z,6.43
2024-01-28T11:32:49.120Z,7.45
2024-01-28T11:35:15.650Z,7.00
2024-01-28T11:37:51.788Z,6.50
2024-01-28T11:40:21.623Z,7.35
2024-01-28T11:42:48.256Z,7.20
2024-01-28T11:45:14.780Z,6.38
2024-01-28T11:47:42.341Z,6.65
2024-01-28T11:50:11.440Z,6.45
2024-01-28T11:52:39.324Z,7.38
2024-01-28T11:55:15.864Z,6.47
2024-01-28T11:57:43.757Z,5.90
2024-01-28T12:05:04.721Z,5.93
2024-01-28T12:07:32.036Z,5.18
2024-01-28T12:10:00.759Z,6.32
2024-01-28T12:12:28.592Z,6.47
2024-01-28T12:14:58.043Z,5.70
2024-01-28T12:17:24.370Z,6.38
2024-01-28T12:19:51.921Z,6.30
2024-01-28T12:22:18.512Z,4.78
2024-01-28T12:24:45.557Z,5.80
2024-01-28T12:27:12.122Z,6.63
2024-01-28T12:29:38.729Z,6.60
2024-01-28T12:32:05.675Z,6.20
2024-01-28T12:34:32.050Z,5.70
2024-01-28T12:36:58.551Z,5.20
2024-01-28T12:39:24.936Z,6.32
2024-01-28T12:41:51.663Z,5.35
2024-01-28T12:44:19.762Z,6.10
2024-01-28T12:46:46.302Z,5.38
2024-01-28T12:49:13.343Z,5.88
2024-01-28T12:51:39.814Z,5.00
2024-01-28T12:54:06.489Z,5.47
2024-01-28T12:56:33.111Z,5.97
2024-01-28T12:58:59.385Z,4.80
2024-01-28T13:01:26.248Z,4.70
2024-01-28T13:03:53.023Z,5.30
2024-01-28T13:06:21.027Z,5.07
2024-01-28T13:08:48.654Z,4.78
2024-01-28T13:11:15.218Z,5.85
2024-01-28T13:13:41.828Z,4.97
2024-01-28T13:16:08.573Z,4.18
2024-01-28T13:18:36.347Z,4.70
2024-01-28T13:21:03.152Z,4.78
2024-01-28T13:23:29.723Z,4.47
2024-01-28T13:25:56.311Z,4.53
2024-01-28T13:28:22.863Z,4.72
2024-01-28T13:30:49.662Z,4.80
2024-01-28T13:33:16.224Z,5.05
2024-01-28T13:35:42.895Z,4.40
2024-01-28T13:38:09.426Z,4.32
2024-01-28T13:40:36.939Z,4.20
2024-01-28T13:45:30.046Z,3.42
2024-01-28T13:47:56.441Z,4.97
2024-01-28T13:50:22.824Z,3.83
2024-01-28T13:52:49.426Z,4.07
2024-01-28T13:55:15.819Z,4.60
2024-01-28T13:57:42.157Z,6.15
2024-01-28T14:00:08.847Z,4.00
2024-01-28T14:02:35.162Z,4.57
2024-01-28T14:05:01.639Z,4.55
2024-01-28T14:07:28.217Z,5.20
2024-01-28T14:09:54.865Z,4.30
2024-01-28T14:12:21.486Z,4.43
2024-01-28T14:14:47.834Z,4.88
2024-01-28T14:17:14.137Z,4.53
2024-01-28T14:19:40.825Z,4.70
2024-01-28T14:22:07.214Z,3.83
2024-01-28T14:24:33.720Z,3.92
2024-01-28T14:27:00.247Z,5.32
2024-01-28T14:29:28.972Z,5.05
2024-01-28T14:31:55.566Z,5.10
2024-01-28T14:34:22.248Z,5.40
2024-01-28T14:36:53.766Z,4.80
2024-01-28T14:39:20.215Z,4.60
2024-01-28T14:41:48.758Z,4.32
2024-01-28T14:44:16.598Z,5.00
2024-01-28T14:46:43.212Z,4.40
2024-01-28T14:49:09.600Z,4.28
2024-01-28T14:51:36.227Z,5.03
2024-01-28T14:54:02.518Z,5.43
2024-01-28T14:56:29.088Z,4.95
2024-01-28T14:58:55.658Z,5.05
2024-01-28T15:01:22.994Z,4.90
2024-01-28T15:03:49.686Z,4.50
2024-01-28T15:06:17.352Z,4.60
2024-01-28T15:08:44.363Z,4.50
2024-01-28T15:11:10.981Z,4.20
2024-01-28T15:13:37.600Z,4.50
2024-01-28T15:16:04.213Z,4.32
2024-01-28T15:18:30.958Z,5.95
2024-01-28T15:20:57.691Z,4.68
2024-01-28T15:23:23.982Z,5.40
2024-01-28T15:25:50.572Z,5.07
2024-01-28T15:28:24.548Z,4.75
2024-01-28T15:30:52.096Z,6.13
2024-01-28T15:33:19.043Z,7.22
2024-01-28T15:35:45.685Z,6.38
2024-01-28T15:38:12.504Z,5.88
2024-01-28T15:40:39.037Z,5.75
2024-01-28T15:43:05.412Z,5.70
2024-01-28T15:45:32.180Z,6.90
2024-01-28T15:47:58.843Z,6.50
2024-01-28T15:50:25.464Z,7.97
2024-01-28T15:52:52.033Z,6.65
2024-01-28T15:55:26.038Z,7.35
2024-01-28T15:57:55.619Z,7.22
2024-01-28T16:00:22.194Z,6.13
2024-01-28T16:02:48.807Z,5.78
2024-01-28T16:05:15.404Z,6.07
2024-01-28T16:07:42.103Z,6.78
2024-01-28T16:10:09.910Z,6.63
2024-01-28T16:12:36.518Z,9.35
2024-01-28T16:15:02.870Z,8.93
2024-01-28T16:17:29.595Z,8.35
2024-01-28T16:19:56.361Z,8.95
2024-01-28T16:22:23.044Z,18.45
2024-01-28T16:24:49.586Z,7.55
2024-01-28T16:27:16.939Z,8.52
2024-01-28T16:29:45.919Z,8.55
2024-01-28T16:32:13.301Z,8.77
2024-01-28T16:34:40.460Z,9.35
2024-01-28T16:37:07.431Z,9.35
2024-01-28T16:39:34.150Z,11.63
2024-01-28T16:42:00.691Z,9.77
2024-01-28T16:44:27.225Z,8.93
2024-01-28T16:46:53.805Z,9.70
2024-01-28T16:49:20.438Z,8.65
2024-01-28T16:51:47.684Z,7.88
2024-01-28T16:54:14.279Z,8.90
2024-01-28T16:56:40.866Z,9.65
2024-01-28T16:59:08.550Z,8.82
2024-01-28T17:01:34.901Z,8.60
2024-01-28T17:04:01.360Z,8.55
2024-01-28T17:06:27.838Z,7.53
2024-01-28T17:08:54.478Z,6.38
2024-01-28T17:11:20.762Z,6.57
2024-01-28T17:13:47.306Z,7.05
2024-01-28T17:16:14.052Z,6.32
2024-01-28T17:18:40.691Z,5.88
2024-01-28T17:21:07.270Z,5.40
2024-01-28T17:23:35.111Z,5.57
2024-01-28T17:26:01.464Z,4.75
2024-01-28T17:28:27.806Z,6.25
2024-01-28T17:30:56.741Z,8.45
2024-01-28T17:33:24.671Z,6.75
2024-01-28T17:35:51.081Z,6.38
2024-01-28T17:38:17.721Z,6.38
2024-01-28T17:40:44.120Z,6.90
2024-01-28T17:43:10.451Z,5.47
2024-01-28T17:45:38.734Z,7.68
2024-01-28T17:48:05.678Z,7.20
2024-01-28T17:50:32.073Z,13.93
2024-01-28T17:52:58.655Z,15.75
2024-01-28T17:55:26.891Z,12.15
2024-01-28T17:57:53.575Z,11.43
2024-01-28T18:00:21.139Z,11.85
2024-01-28T18:02:47.557Z,12.98
2024-01-28T18:05:15.083Z,13.70
2024-01-28T18:07:41.416Z,15.13
2024-01-28T18:10:08.259Z,15.27
2024-01-28T18:12:35.003Z,10.88
2024-01-28T18:15:01.407Z,15.55
2024-01-28T18:17:28.025Z,20.10
2024-01-28T18:19:54.496Z,21.88
2024-01-28T18:22:21.216Z,24.27
2024-01-28T18:24:49.819Z,21.40
2024-01-28T18:27:17.410Z,14.43
2024-01-28T18:29:44.031Z,12.57
2024-01-28T18:32:10.597Z,11.95
2024-01-28T18:34:37.329Z,11.77
2024-01-28T18:37:04.006Z,9.98
2024-01-28T18:39:30.501Z,8.55
2024-01-28T18:41:57.210Z,9.07
2024-01-28T18:44:23.798Z,11.02
2024-01-28T18:46:50.077Z,17.48
2024-01-28T18:49:16.824Z,16.50
2024-01-28T18:51:43.485Z,14.32
2024-01-28T18:54:10.178Z,12.48
2024-01-28T18:56:36.510Z,12.18
2024-01-28T18:59:02.869Z,12.10
2024-01-28T19:01:29.181Z,9.75
2024-01-28T19:03:55.841Z,11.55
2024-01-28T19:06:23.073Z,11.43
2024-01-28T19:08:49.501Z,12.45
2024-01-28T19:11:16.048Z,10.50
2024-01-28T19:13:42.385Z,9.68
2024-01-28T19:16:09.054Z,9.82
2024-01-28T19:18:35.810Z,7.13
2024-01-28T19:21:02.193Z,10.60
2024-01-28T19:23:28.762Z,10.23
2024-01-28T19:25:55.296Z,13.45
2024-01-28T19:28:21.599Z,13.45
2024-01-28T19:30:48.215Z,12.43
2024-01-28T19:33:14.593Z,11.38
2024-01-28T19:35:41.160Z,12.43
2024-01-28T19:38:09.299Z,13.23
2024-01-28T19:43:02.164Z,10.13
2024-01-28T19:45:28.552Z,10.15
2024-01-28T19:47:55.619Z,12.98
2024-01-28T19:50:22.010Z,13.80
2024-01-28T19:52:48.557Z,16.90
2024-01-28T19:55:15.655Z,13.40
2024-01-28T19:57:42.247Z,11.70
2024-01-28T20:00:09.111Z,12.02
2024-01-28T20:02:35.395Z,19.20
2024-01-28T20:05:01.984Z,20.50
2024-01-28T20:07:28.414Z,20.75
2024-01-28T20:09:55.079Z,23.95
2024-01-28T20:12:21.441Z,22.65
2024-01-28T20:14:48.765Z,19.50
2024-01-28T20:17:15.302Z,17.38
2024-01-28T20:19:41.733Z,17.13
2024-01-28T20:22:08.098Z,15.25
2024-01-28T20:24:34.527Z,14.23
2024-01-28T20:27:00.893Z,14.52
2024-01-28T20:29:27.268Z,14.32
2024-01-28T20:31:53.706Z,15.93
2024-01-28T20:34:20.148Z,14.80
2024-01-28T20:36:47.115Z,14.30
2024-01-28T20:39:13.460Z,15.32
2024-01-28T20:41:40.064Z,11.32
2024-01-28T20:44:06.924Z,13.43
2024-01-28T20:46:33.458Z,12.07
2024-01-28T20:49:00.347Z,13.18
2024-01-28T20:51:27.111Z,11.73
2024-01-28T20:53:54.010Z,11.93
2024-01-28T20:56:31.388Z,12.20
2024-01-28T20:58:57.720Z,11.57
2024-01-28T21:01:24.114Z,10.40
2024-01-28T21:03:50.850Z,9.77
2024-01-28T21:06:17.330Z,12.45
2024-01-28T21:08:43.949Z,11.07
2024-01-28T21:11:10.555Z,10.95
2024-01-28T21:13:37.275Z,10.57
2024-01-28T21:16:04.118Z,12.05
2024-01-28T21:18:30.638Z,10.57
2024-01-28T21:20:57.267Z,11.77
2024-01-28T21:23:23.673Z,10.82
2024-01-28T21:25:50.663Z,11.07
2024-01-28T21:28:17.270Z,10.77
2024-01-28T21:30:44.450Z,13.13
2024-01-28T21:33:11.707Z,15.82
2024-01-28T21:35:38.391Z,12.55
2024-01-28T21:38:04.965Z,13.75
2024-01-28T21:40:33.362Z,14.45
2024-01-28T21:43:00.876Z,18.88
2024-01-28T21:45:27.669Z,18.20
2024-01-28T21:47:54.052Z,16.25
2024-01-28T21:50:21.024Z,14.68
2024-01-28T21:52:47.571Z,15.10
2024-01-28T21:55:14.123Z,15.27
2024-01-28T21:57:40.856Z,15.20
2024-01-28T22:00:07.341Z,15.90
2024-01-28T22:02:34.059Z,19.08
2024-01-28T22:05:00.646Z,18.17
2024-01-28T22:07:27.280Z,18.45
2024-01-28T22:09:53.768Z,18.23
2024-01-28T22:12:20.135Z,17.42
2024-01-28T22:14:46.689Z,15.60
2024-01-28T22:17:13.222Z,18.48
2024-01-28T22:19:39.875Z,15.95
2024-01-28T22:22:07.620Z,16.33
2024-01-28T22:24:34.268Z,16.38
2024-01-28T22:27:00.948Z,15.82
2024-01-28T22:29:27.296Z,15.98
2024-01-28T22:31:53.610Z,16.20
2024-01-28T22:34:20.291Z,15.20
2024-01-28T22:36:50.193Z,14.75
2024-01-28T22:39:16.790Z,16.95
2024-01-28T22:41:43.217Z,17.30
2024-01-28T22:44:09.790Z,15.45
2024-01-28T22:46:36.392Z,16.15
2024-01-28T22:49:03.089Z,14.52
2024-01-28T22:51:29.698Z,14.70
2024-01-28T22:53:56.292Z,14.73
2024-01-28T22:56:22.931Z,15.45
2024-01-28T22:58:49.465Z,14.32
2024-01-28T23:01:16.127Z,16.42
2024-01-28T23:03:42.838Z,16.75
2024-01-28T23:06:09.216Z,16.60
2024-01-28T23:08:35.648Z,16.10
2024-01-28T23:11:02.980Z,15.07
2024-01-28T23:13:29.269Z,15.93
2024-01-28T23:15:55.902Z,15.52
2024-01-28T23:18:22.337Z,14.93
2024-01-28T23:20:48.944Z,14.38
2024-01-28T23:23:15.497Z,16.30
2024-01-28T23:25:42.091Z,15.57
2024-01-28T23:28:08.742Z,16.05
2024-01-28T23:30:35.131Z,15.18
2024-01-28T23:33:01.546Z,15.50
2024-01-28T23:35:28.356Z,16.00
2024-01-28T23:37:54.692Z,15.38
2024-01-28T23:40:21.300Z,16.38
2024-01-28T23:42:47.682Z,16.45
2024-01-28T23:45:14.305Z,15.02
2024-01-28T23:47:40.877Z,14.40
2024-01-28T23:50:07.492Z,14.95
2024-01-28T23:52:34.443Z,15.63
2024-01-28T23:55:00.918Z,14.90
2024-01-28T23:57:27.529Z,16.55
2024-01-28T23:59:54.073Z,14.00
